sensor_id;sensor_type;location;lat;lon;timestamp;P1;durP1;ratioP1;P2;durP2;ratioP2
80322;SDS011;69636;52.372;13.610;2023-10-13T00:01:36;4.57;;;2.42;;
80322;SDS011;69636;52.372;13.610;2023-10-13T00:04:05;5.05;;;3.30;;
80322;SDS011;69636;52.372;13.610;2023-10-13T00:06:33;4.55;;;2.20;;
80322;SDS011;69636;52.372;13.610;2023-10-13T00:09:00;5.47;;;2.35;;
80322;SDS011;69636;52.372;13.610;2023-10-13T00:11:27;4.32;;;3.42;;
80322;SDS011;69636;52.372;13.610;2023-10-13T00:13:54;4.38;;;2.60;;
80322;SDS011;69636;52.372;13.610;2023-10-13T00:16:22;5.03;;;2.50;;
80322;SDS011;69636;52.372;13.610;2023-10-13T00:18:50;4.45;;;2.60;;
80322;SDS011;69636;52.372;13.610;2023-10-13T00:23:46;6.18;;;2.70;;
80322;SDS011;69636;52.372;13.610;2023-10-13T00:26:13;4.55;;;2.33;;
80322;SDS011;69636;52.372;13.610;2023-10-13T00:28:41;5.22;;;2.42;;
80322;SDS011;69636;52.372;13.610;2023-10-13T00:31:08;5.25;;;2.63;;
80322;SDS011;69636;52.372;13.610;2023-10-13T00:33:36;6.30;;;2.63;;
80322;SDS011;69636;52.372;13.610;2023-10-13T00:36:03;4.78;;;2.67;;
80322;SDS011;69636;52.372;13.610;2023-10-13T00:38:32;6.03;;;2.72;;
80322;SDS011;69636;52.372;13.610;2023-10-13T00:40:59;7.38;;;3.08;;
80322;SDS011;69636;52.372;13.610;2023-10-13T00:43:27;7.40;;;3.30;;
80322;SDS011;69636;52.372;13.610;2023-10-13T00:45:55;5.70;;;3.92;;
80322;SDS011;69636;52.372;13.610;2023-10-13T00:48:25;6.65;;;3.70;;
80322;SDS011;69636;52.372;13.610;2023-10-13T00:50:57;6.18;;;3.33;;
80322;SDS011;69636;52.372;13.610;2023-10-13T00:53:25;5.32;;;2.38;;
80322;SDS011;69636;52.372;13.610;2023-10-13T00:55:54;6.65;;;3.15;;
80322;SDS011;69636;52.372;13.610;2023-10-13T00:58:21;5.32;;;2.63;;
80322;SDS011;69636;52.372;13.610;2023-10-13T01:00:49;6.38;;;2.88;;
80322;SDS011;69636;52.372;13.610;2023-10-13T01:03:17;5.38;;;3.03;;
80322;SDS011;69636;52.372;13.610;2023-10-13T01:05:44;5.85;;;2.30;;
80322;SDS011;69636;52.372;13.610;2023-10-13T01:08:12;5.32;;;2.95;;
80322;SDS011;69636;52.372;13.610;2023-10-13T01:10:39;8.65;;;4.97;;
80322;SDS011;69636;52.372;13.610;2023-10-13T01:13:08;7.45;;;3.00;;
80322;SDS011;69636;52.372;13.610;2023-10-13T01:15:35;5.43;;;2.75;;
80322;SDS011;69636;52.372;13.610;2023-10-13T01:18:06;7.32;;;3.63;;
80322;SDS011;69636;52.372;13.610;2023-10-13T01:20:33;6.20;;;2.75;;
80322;SDS011;69636;52.372;13.610;2023-10-13T01:23:07;7.53;;;3.33;;
80322;SDS011;69636;52.372;13.610;2023-10-13T01:25:37;8.52;;;3.78;;
80322;SDS011;69636;52.372;13.610;2023-10-13T01:28:04;6.07;;;2.95;;
80322;SDS011;69636;52.372;13.610;2023-10-13T01:30:32;7.90;;;3.42;;
80322;SDS011;69636;52.372;13.610;2023-10-13T01:32:59;6.68;;;3.33;;
80322;SDS011;69636;52.372;13.610;2023-10-13T01:35:26;7.45;;;4.05;;
80322;SDS011;69636;52.372;13.610;2023-10-13T01:37:54;9.07;;;3.17;;
80322;SDS011;69636;52.372;13.610;2023-10-13T01:40:22;7.32;;;3.72;;
80322;SDS011;69636;52.372;13.610;2023-10-13T01:42:50;5.45;;;3.17;;
80322;SDS011;69636;52.372;13.610;2023-10-13T01:45:17;5.72;;;4.30;;
80322;SDS011;69636;52.372;13.610;2023-10-13T01:47:44;5.60;;;3.15;;
80322;SDS011;69636;52.372;13.610;2023-10-13T01:50:13;7.45;;;4.03;;
80322;SDS011;69636;52.372;13.610;2023-10-13T01:52:41;6.05;;;3.42;;
80322;SDS011;69636;52.372;13.610;2023-10-13T01:55:08;8.40;;;5.47;;
80322;SDS011;69636;52.372;13.610;2023-10-13T01:57:37;6.18;;;4.60;;
80322;SDS011;69636;52.372;13.610;2023-10-13T02:00:05;7.35;;;3.70;;
80322;SDS011;69636;52.372;13.610;2023-10-13T02:02:33;7.57;;;4.13;;
80322;SDS011;69636;52.372;13.610;2023-10-13T02:05:00;7.60;;;4.00;;
80322;SDS011;69636;52.372;13.610;2023-10-13T02:07:28;5.40;;;2.83;;
80322;SDS011;69636;52.372;13.610;2023-10-13T02:09:55;6.53;;;4.18;;
80322;SDS011;69636;52.372;13.610;2023-10-13T02:12:23;9.18;;;3.85;;
80322;SDS011;69636;52.372;13.610;2023-10-13T02:14:52;6.70;;;4.18;;
80322;SDS011;69636;52.372;13.610;2023-10-13T02:17:19;6.90;;;4.03;;
80322;SDS011;69636;52.372;13.610;2023-10-13T02:19:46;7.00;;;4.10;;
80322;SDS011;69636;52.372;13.610;2023-10-13T02:22:14;9.55;;;4.72;;
80322;SDS011;69636;52.372;13.610;2023-10-13T02:24:41;6.28;;;4.05;;
80322;SDS011;69636;52.372;13.610;2023-10-13T02:27:09;8.82;;;5.68;;
80322;SDS011;69636;52.372;13.610;2023-10-13T02:29:36;6.47;;;3.92;;
80322;SDS011;69636;52.372;13.610;2023-10-13T02:32:05;8.63;;;4.47;;
80322;SDS011;69636;52.372;13.610;2023-10-13T02:34:32;9.55;;;4.85;;
80322;SDS011;69636;52.372;13.610;2023-10-13T02:37:00;10.10;;;5.00;;
80322;SDS011;69636;52.372;13.610;2023-10-13T02:39:27;12.52;;;5.97;;
80322;SDS011;69636;52.372;13.610;2023-10-13T02:41:54;11.23;;;5.82;;
80322;SDS011;69636;52.372;13.610;2023-10-13T02:44:22;10.95;;;6.30;;
80322;SDS011;69636;52.372;13.610;2023-10-13T02:46:49;8.48;;;4.75;;
80322;SDS011;69636;52.372;13.610;2023-10-13T02:49:18;10.20;;;6.00;;
80322;SDS011;69636;52.372;13.610;2023-10-13T02:51:45;10.90;;;5.63;;
80322;SDS011;69636;52.372;13.610;2023-10-13T02:54:13;9.27;;;5.50;;
80322;SDS011;69636;52.372;13.610;2023-10-13T02:56:40;9.57;;;5.88;;
80322;SDS011;69636;52.372;13.610;2023-10-13T02:59:07;10.93;;;5.63;;
80322;SDS011;69636;52.372;13.610;2023-10-13T03:01:35;11.48;;;6.10;;
80322;SDS011;69636;52.372;13.610;2023-10-13T03:04:03;10.10;;;5.55;;
80322;SDS011;69636;52.372;13.610;2023-10-13T03:06:33;11.40;;;5.72;;
80322;SDS011;69636;52.372;13.610;2023-10-13T03:09:01;11.98;;;6.97;;
80322;SDS011;69636;52.372;13.610;2023-10-13T03:11:30;13.48;;;6.53;;
80322;SDS011;69636;52.372;13.610;2023-10-13T03:13:57;13.70;;;7.32;;
80322;SDS011;69636;52.372;13.610;2023-10-13T03:16:24;11.68;;;6.32;;
80322;SDS011;69636;52.372;13.610;2023-10-13T03:18:52;12.70;;;7.25;;
80322;SDS011;69636;52.372;13.610;2023-10-13T03:21:20;11.48;;;6.30;;
80322;SDS011;69636;52.372;13.610;2023-10-13T03:23:49;12.80;;;6.72;;
80322;SDS011;69636;52.372;13.610;2023-10-13T03:26:16;13.63;;;7.90;;
80322;SDS011;69636;52.372;13.610;2023-10-13T03:28:44;12.38;;;7.38;;
80322;SDS011;69636;52.372;13.610;2023-10-13T03:31:11;15.40;;;10.20;;
80322;SDS011;69636;52.372;13.610;2023-10-13T03:33:38;13.88;;;8.13;;
80322;SDS011;69636;52.372;13.610;2023-10-13T03:36:06;14.57;;;9.32;;
80322;SDS011;69636;52.372;13.610;2023-10-13T03:38:33;14.45;;;8.20;;
80322;SDS011;69636;52.372;13.610;2023-10-13T03:41:02;14.27;;;8.43;;
80322;SDS011;69636;52.372;13.610;2023-10-13T03:43:29;15.68;;;8.57;;
80322;SDS011;69636;52.372;13.610;2023-10-13T03:45:58;13.57;;;8.75;;
80322;SDS011;69636;52.372;13.610;2023-10-13T03:48:25;15.25;;;8.48;;
80322;SDS011;69636;52.372;13.610;2023-10-13T03:50:54;15.32;;;8.80;;
80322;SDS011;69636;52.372;13.610;2023-10-13T03:53:22;16.20;;;9.82;;
80322;SDS011;69636;52.372;13.610;2023-10-13T03:55:49;14.15;;;7.65;;
80322;SDS011;69636;52.372;13.610;2023-10-13T03:58:18;15.15;;;8.43;;
80322;SDS011;69636;52.372;13.610;2023-10-13T04:00:45;15.00;;;7.45;;
80322;SDS011;69636;52.372;13.610;2023-10-13T04:03:13;14.50;;;8.70;;
80322;SDS011;69636;52.372;13.610;2023-10-13T04:05:40;15.15;;;7.35;;
80322;SDS011;69636;52.372;13.610;2023-10-13T04:08:08;14.52;;;8.38;;
80322;SDS011;69636;52.372;13.610;2023-10-13T04:10:35;15.77;;;9.20;;
80322;SDS011;69636;52.372;13.610;2023-10-13T04:13:04;16.05;;;9.52;;
80322;SDS011;69636;52.372;13.610;2023-10-13T04:15:33;14.10;;;8.48;;
80322;SDS011;69636;52.372;13.610;2023-10-13T04:18:00;14.30;;;8.43;;
80322;SDS011;69636;52.372;13.610;2023-10-13T04:20:27;15.07;;;8.43;;
80322;SDS011;69636;52.372;13.610;2023-10-13T04:22:55;14.38;;;9.35;;
80322;SDS011;69636;52.372;13.610;2023-10-13T04:25:23;16.02;;;9.40;;
80322;SDS011;69636;52.372;13.610;2023-10-13T04:27:52;14.13;;;8.60;;
80322;SDS011;69636;52.372;13.610;2023-10-13T04:30:19;15.45;;;9.75;;
80322;SDS011;69636;52.372;13.610;2023-10-13T04:32:50;14.30;;;9.13;;
80322;SDS011;69636;52.372;13.610;2023-10-13T04:35:17;15.27;;;9.25;;
80322;SDS011;69636;52.372;13.610;2023-10-13T04:37:45;16.05;;;9.52;;
80322;SDS011;69636;52.372;13.610;2023-10-13T04:40:12;16.73;;;12.45;;
80322;SDS011;69636;52.372;13.610;2023-10-13T04:42:40;14.38;;;9.40;;
80322;SDS011;69636;52.372;13.610;2023-10-13T04:45:09;17.33;;;10.63;;
80322;SDS011;69636;52.372;13.610;2023-10-13T04:47:37;16.63;;;10.82;;
80322;SDS011;69636;52.372;13.610;2023-10-13T04:50:06;18.27;;;12.32;;
80322;SDS011;69636;52.372;13.610;2023-10-13T04:52:34;14.75;;;9.52;;
80322;SDS011;69636;52.372;13.610;2023-10-13T04:55:01;18.23;;;12.73;;
80322;SDS011;69636;52.372;13.610;2023-10-13T04:57:29;16.42;;;9.45;;
80322;SDS011;69636;52.372;13.610;2023-10-13T04:59:56;19.00;;;10.48;;
80322;SDS011;69636;52.372;13.610;2023-10-13T05:02:23;15.40;;;9.65;;
80322;SDS011;69636;52.372;13.610;2023-10-13T05:04:51;16.13;;;9.45;;
80322;SDS011;69636;52.372;13.610;2023-10-13T05:07:20;16.40;;;10.90;;
80322;SDS011;69636;52.372;13.610;2023-10-13T05:09:47;16.55;;;10.18;;
80322;SDS011;69636;52.372;13.610;2023-10-13T05:12:15;15.57;;;10.27;;
80322;SDS011;69636;52.372;13.610;2023-10-13T05:14:42;14.48;;;10.75;;
80322;SDS011;69636;52.372;13.610;2023-10-13T05:17:09;16.15;;;12.07;;
80322;SDS011;69636;52.372;13.610;2023-10-13T05:19:37;17.63;;;10.68;;
80322;SDS011;69636;52.372;13.610;2023-10-13T05:22:04;15.52;;;10.90;;
80322;SDS011;69636;52.372;13.610;2023-10-13T05:24:33;18.55;;;12.05;;
80322;SDS011;69636;52.372;13.610;2023-10-13T05:27:00;16.75;;;9.38;;
80322;SDS011;69636;52.372;13.610;2023-10-13T05:29:28;14.95;;;9.57;;
80322;SDS011;69636;52.372;13.610;2023-10-13T05:31:56;16.50;;;10.55;;
80322;SDS011;69636;52.372;13.610;2023-10-13T05:34:23;18.17;;;11.75;;
80322;SDS011;69636;52.372;13.610;2023-10-13T05:36:51;18.52;;;11.10;;
80322;SDS011;69636;52.372;13.610;2023-10-13T05:39:18;16.10;;;9.88;;
80322;SDS011;69636;52.372;13.610;2023-10-13T05:44:14;14.70;;;9.50;;
80322;SDS011;69636;52.372;13.610;2023-10-13T05:46:42;17.55;;;10.52;;
80322;SDS011;69636;52.372;13.610;2023-10-13T05:49:09;17.20;;;10.32;;
80322;SDS011;69636;52.372;13.610;2023-10-13T05:51:37;19.80;;;13.70;;
80322;SDS011;69636;52.372;13.610;2023-10-13T05:54:04;19.55;;;11.80;;
80322;SDS011;69636;52.372;13.610;2023-10-13T05:56:33;15.82;;;11.60;;
80322;SDS011;69636;52.372;13.610;2023-10-13T05:59:01;18.85;;;11.02;;
80322;SDS011;69636;52.372;13.610;2023-10-13T06:01:29;18.05;;;11.43;;
80322;SDS011;69636;52.372;13.610;2023-10-13T06:03:56;19.27;;;14.43;;
80322;SDS011;69636;52.372;13.610;2023-10-13T06:06:24;21.05;;;12.27;;
80322;SDS011;69636;52.372;13.610;2023-10-13T06:08:51;20.40;;;13.20;;
80322;SDS011;69636;52.372;13.610;2023-10-13T06:11:18;19.75;;;12.00;;
80322;SDS011;69636;52.372;13.610;2023-10-13T06:13:46;19.45;;;11.90;;
80322;SDS011;69636;52.372;13.610;2023-10-13T06:16:16;18.58;;;11.23;;
80322;SDS011;69636;52.372;13.610;2023-10-13T06:18:44;19.73;;;12.98;;
80322;SDS011;69636;52.372;13.610;2023-10-13T06:21:11;18.77;;;11.40;;
80322;SDS011;69636;52.372;13.610;2023-10-13T06:23:38;17.02;;;11.35;;
80322;SDS011;69636;52.372;13.610;2023-10-13T06:26:05;17.92;;;11.10;;
80322;SDS011;69636;52.372;13.610;2023-10-13T06:28:33;21.35;;;13.27;;
80322;SDS011;69636;52.372;13.610;2023-10-13T06:31:01;17.70;;;10.70;;
80322;SDS011;69636;52.372;13.610;2023-10-13T06:33:32;17.88;;;11.40;;
80322;SDS011;69636;52.372;13.610;2023-10-13T06:36:01;17.00;;;9.60;;
80322;SDS011;69636;52.372;13.610;2023-10-13T06:38:29;16.30;;;11.45;;
80322;SDS011;69636;52.372;13.610;2023-10-13T06:40:57;16.65;;;10.27;;
80322;SDS011;69636;52.372;13.610;2023-10-13T06:43:24;14.77;;;9.80;;
80322;SDS011;69636;52.372;13.610;2023-10-13T06:45:54;13.98;;;9.88;;
80322;SDS011;69636;52.372;13.610;2023-10-13T06:48:21;17.15;;;11.38;;
80322;SDS011;69636;52.372;13.610;2023-10-13T06:50:50;18.55;;;11.52;;
80322;SDS011;69636;52.372;13.610;2023-10-13T06:53:18;17.20;;;11.25;;
80322;SDS011;69636;52.372;13.610;2023-10-13T06:55:45;18.80;;;11.45;;
80322;SDS011;69636;52.372;13.610;2023-10-13T06:58:13;14.27;;;10.57;;
80322;SDS011;69636;52.372;13.610;2023-10-13T07:00:40;16.55;;;10.20;;
80322;SDS011;69636;52.372;13.610;2023-10-13T07:03:07;16.60;;;10.05;;
80322;SDS011;69636;52.372;13.610;2023-10-13T07:05:35;13.98;;;9.30;;
80322;SDS011;69636;52.372;13.610;2023-10-13T07:08:05;15.13;;;9.90;;
80322;SDS011;69636;52.372;13.610;2023-10-13T07:10:33;17.42;;;12.25;;
80322;SDS011;69636;52.372;13.610;2023-10-13T07:13:00;15.80;;;9.80;;
80322;SDS011;69636;52.372;13.610;2023-10-13T07:15:27;15.90;;;10.02;;
80322;SDS011;69636;52.372;13.610;2023-10-13T07:17:55;14.85;;;10.05;;
80322;SDS011;69636;52.372;13.610;2023-10-13T07:20:22;14.77;;;9.68;;
80322;SDS011;69636;52.372;13.610;2023-10-13T07:22:50;13.23;;;8.57;;
80322;SDS011;69636;52.372;13.610;2023-10-13T07:25:18;15.90;;;9.50;;
80322;SDS011;69636;52.372;13.610;2023-10-13T07:27:46;17.60;;;8.63;;
80322;SDS011;69636;52.372;13.610;2023-10-13T07:30:13;13.25;;;8.13;;
80322;SDS011;69636;52.372;13.610;2023-10-13T07:32:41;13.55;;;8.55;;
80322;SDS011;69636;52.372;13.610;2023-10-13T07:35:10;10.70;;;7.95;;
80322;SDS011;69636;52.372;13.610;2023-10-13T07:37:38;11.63;;;7.57;;
80322;SDS011;69636;52.372;13.610;2023-10-13T07:40:06;12.77;;;9.80;;
80322;SDS011;69636;52.372;13.610;2023-10-13T07:42:36;11.40;;;8.15;;
80322;SDS011;69636;52.372;13.610;2023-10-13T07:45:03;10.80;;;7.03;;
80322;SDS011;69636;52.372;13.610;2023-10-13T07:47:31;12.15;;;7.72;;
80322;SDS011;69636;52.372;13.610;2023-10-13T07:49:59;10.93;;;7.85;;
80322;SDS011;69636;52.372;13.610;2023-10-13T07:52:26;11.55;;;8.13;;
80322;SDS011;69636;52.372;13.610;2023-10-13T07:54:57;9.82;;;7.60;;
80322;SDS011;69636;52.372;13.610;2023-10-13T07:57:25;12.40;;;8.60;;
80322;SDS011;69636;52.372;13.610;2023-10-13T07:59:54;11.63;;;7.53;;
80322;SDS011;69636;52.372;13.610;2023-10-13T08:02:21;10.68;;;7.40;;
80322;SDS011;69636;52.372;13.610;2023-10-13T08:04:49;16.20;;;7.22;;
80322;SDS011;69636;52.372;13.610;2023-10-13T08:07:16;11.27;;;7.45;;
80322;SDS011;69636;52.372;13.610;2023-10-13T08:12:11;10.23;;;6.57;;
80322;SDS011;69636;52.372;13.610;2023-10-13T08:14:38;9.57;;;6.60;;
80322;SDS011;69636;52.372;13.610;2023-10-13T08:17:07;10.15;;;6.75;;
80322;SDS011;69636;52.372;13.610;2023-10-13T08:19:35;10.65;;;6.80;;
80322;SDS011;69636;52.372;13.610;2023-10-13T08:22:03;9.15;;;5.70;;
80322;SDS011;69636;52.372;13.610;2023-10-13T08:24:30;9.48;;;6.65;;
80322;SDS011;69636;52.372;13.610;2023-10-13T08:26:58;9.30;;;6.35;;
80322;SDS011;69636;52.372;13.610;2023-10-13T08:29:25;9.57;;;6.82;;
80322;SDS011;69636;52.372;13.610;2023-10-13T08:31:52;10.52;;;6.53;;
80322;SDS011;69636;52.372;13.610;2023-10-13T08:34:22;9.13;;;5.82;;
80322;SDS011;69636;52.372;13.610;2023-10-13T08:36:50;9.55;;;6.50;;
80322;SDS011;69636;52.372;13.610;2023-10-13T08:39:17;8.60;;;5.85;;
80322;SDS011;69636;52.372;13.610;2023-10-13T08:41:44;10.60;;;5.95;;
80322;SDS011;69636;52.372;13.610;2023-10-13T08:44:13;9.40;;;4.82;;
80322;SDS011;69636;52.372;13.610;2023-10-13T08:46:41;7.07;;;4.40;;
80322;SDS011;69636;52.372;13.610;2023-10-13T08:49:09;8.65;;;4.95;;
80322;SDS011;69636;52.372;13.610;2023-10-13T08:51:40;7.18;;;5.45;;
80322;SDS011;69636;52.372;13.610;2023-10-13T08:54:08;7.78;;;6.30;;
80322;SDS011;69636;52.372;13.610;2023-10-13T08:56:39;9.13;;;5.93;;
80322;SDS011;69636;52.372;13.610;2023-10-13T08:59:06;8.45;;;5.05;;
80322;SDS011;69636;52.372;13.610;2023-10-13T09:01:34;7.70;;;4.40;;
80322;SDS011;69636;52.372;13.610;2023-10-13T09:04:03;9.60;;;6.00;;
80322;SDS011;69636;52.372;13.610;2023-10-13T09:06:31;8.00;;;5.25;;
80322;SDS011;69636;52.372;13.610;2023-10-13T09:09:05;8.50;;;5.50;;
80322;SDS011;69636;52.372;13.610;2023-10-13T09:11:33;7.57;;;4.80;;
80322;SDS011;69636;52.372;13.610;2023-10-13T09:14:01;8.65;;;5.05;;
80322;SDS011;69636;52.372;13.610;2023-10-13T09:16:29;6.93;;;4.85;;
80322;SDS011;69636;52.372;13.610;2023-10-13T09:19:01;6.70;;;4.97;;
80322;SDS011;69636;52.372;13.610;2023-10-13T09:21:28;7.95;;;5.10;;
80322;SDS011;69636;52.372;13.610;2023-10-13T09:23:56;7.90;;;5.85;;
80322;SDS011;69636;52.372;13.610;2023-10-13T09:26:24;7.55;;;4.90;;
80322;SDS011;69636;52.372;13.610;2023-10-13T09:29:01;6.82;;;4.78;;
80322;SDS011;69636;52.372;13.610;2023-10-13T09:31:28;7.88;;;4.97;;
80322;SDS011;69636;52.372;13.610;2023-10-13T09:33:56;8.23;;;5.35;;
80322;SDS011;69636;52.372;13.610;2023-10-13T09:36:23;6.95;;;4.93;;
80322;SDS011;69636;52.372;13.610;2023-10-13T09:38:50;7.88;;;5.65;;
80322;SDS011;69636;52.372;13.610;2023-10-13T09:41:19;8.05;;;4.80;;
80322;SDS011;69636;52.372;13.610;2023-10-13T09:43:47;7.70;;;4.80;;
80322;SDS011;69636;52.372;13.610;2023-10-13T09:46:15;7.18;;;4.20;;
80322;SDS011;69636;52.372;13.610;2023-10-13T09:48:47;8.52;;;5.93;;
80322;SDS011;69636;52.372;13.610;2023-10-13T09:51:15;7.90;;;4.78;;
80322;SDS011;69636;52.372;13.610;2023-10-13T09:53:45;8.73;;;4.90;;
80322;SDS011;69636;52.372;13.610;2023-10-13T09:56:37;8.55;;;6.63;;
80322;SDS011;69636;52.372;13.610;2023-10-13T09:59:09;7.03;;;4.70;;
80322;SDS011;69636;52.372;13.610;2023-10-13T10:01:42;6.63;;;4.25;;
80322;SDS011;69636;52.372;13.610;2023-10-13T10:04:11;7.85;;;4.68;;
80322;SDS011;69636;52.372;13.610;2023-10-13T10:06:50;6.55;;;4.93;;
80322;SDS011;69636;52.372;13.610;2023-10-13T10:09:18;7.95;;;5.07;;
80322;SDS011;69636;52.372;13.610;2023-10-13T10:14:40;8.30;;;4.90;;
80322;SDS011;69636;52.372;13.610;2023-10-13T10:17:19;8.20;;;4.85;;
80322;SDS011;69636;52.372;13.610;2023-10-13T10:19:47;9.07;;;5.20;;
80322;SDS011;69636;52.372;13.610;2023-10-13T10:22:24;6.97;;;4.13;;
80322;SDS011;69636;52.372;13.610;2023-10-13T10:24:55;7.88;;;5.93;;
80322;SDS011;69636;52.372;13.610;2023-10-13T10:27:24;5.00;;;3.88;;
80322;SDS011;69636;52.372;13.610;2023-10-13T10:29:56;9.02;;;5.00;;
80322;SDS011;69636;52.372;13.610;2023-10-13T10:32:34;9.10;;;4.63;;
80322;SDS011;69636;52.372;13.610;2023-10-13T10:35:05;5.43;;;3.67;;
80322;SDS011;69636;52.372;13.610;2023-10-13T10:37:34;9.45;;;4.47;;
80322;SDS011;69636;52.372;13.610;2023-10-13T10:40:06;7.38;;;4.90;;
80322;SDS011;69636;52.372;13.610;2023-10-13T10:42:34;7.10;;;4.10;;
80322;SDS011;69636;52.372;13.610;2023-10-13T10:45:07;7.75;;;6.30;;
80322;SDS011;69636;52.372;13.610;2023-10-13T10:47:36;9.20;;;4.75;;
80322;SDS011;69636;52.372;13.610;2023-10-13T10:52:31;6.95;;;4.50;;
80322;SDS011;69636;52.372;13.610;2023-10-13T10:54:59;7.20;;;4.85;;
80322;SDS011;69636;52.372;13.610;2023-10-13T10:57:26;9.05;;;4.93;;
80322;SDS011;69636;52.372;13.610;2023-10-13T10:59:54;7.22;;;4.30;;
80322;SDS011;69636;52.372;13.610;2023-10-13T11:04:58;7.70;;;4.80;;
80322;SDS011;69636;52.372;13.610;2023-10-13T11:07:25;8.85;;;4.60;;
80322;SDS011;69636;52.372;13.610;2023-10-13T11:09:53;6.63;;;4.85;;
80322;SDS011;69636;52.372;13.610;2023-10-13T11:12:20;6.35;;;4.38;;
80322;SDS011;69636;52.372;13.610;2023-10-13T11:14:47;7.95;;;4.90;;
80322;SDS011;69636;52.372;13.610;2023-10-13T11:17:18;9.40;;;4.35;;
80322;SDS011;69636;52.372;13.610;2023-10-13T11:19:48;7.63;;;5.53;;
80322;SDS011;69636;52.372;13.610;2023-10-13T11:22:16;9.27;;;5.15;;
80322;SDS011;69636;52.372;13.610;2023-10-13T11:24:45;9.18;;;5.22;;
80322;SDS011;69636;52.372;13.610;2023-10-13T11:27:15;7.63;;;5.28;;
80322;SDS011;69636;52.372;13.610;2023-10-13T11:29:42;8.50;;;4.90;;
80322;SDS011;69636;52.372;13.610;2023-10-13T11:32:10;7.90;;;5.13;;
80322;SDS011;69636;52.372;13.610;2023-10-13T11:34:37;7.43;;;4.85;;
80322;SDS011;69636;52.372;13.610;2023-10-13T11:37:06;7.45;;;5.20;;
80322;SDS011;69636;52.372;13.610;2023-10-13T11:39:34;7.18;;;4.97;;
80322;SDS011;69636;52.372;13.610;2023-10-13T11:42:01;8.13;;;4.90;;
80322;SDS011;69636;52.372;13.610;2023-10-13T11:44:28;8.02;;;5.40;;
80322;SDS011;69636;52.372;13.610;2023-10-13T11:46:56;9.35;;;5.32;;
80322;SDS011;69636;52.372;13.610;2023-10-13T11:49:24;9.25;;;6.18;;
80322;SDS011;69636;52.372;13.610;2023-10-13T11:51:51;7.95;;;5.25;;
80322;SDS011;69636;52.372;13.610;2023-10-13T11:54:20;8.95;;;5.13;;
80322;SDS011;69636;52.372;13.610;2023-10-13T11:56:50;7.85;;;7.03;;
80322;SDS011;69636;52.372;13.610;2023-10-13T11:59:17;7.47;;;4.45;;
80322;SDS011;69636;52.372;13.610;2023-10-13T12:01:45;9.60;;;4.97;;
80322;SDS011;69636;52.372;13.610;2023-10-13T12:04:13;10.30;;;5.32;;
80322;SDS011;69636;52.372;13.610;2023-10-13T12:07:55;9.77;;;4.95;;
80322;SDS011;69636;52.372;13.610;2023-10-13T12:10:24;8.13;;;4.82;;
80322;SDS011;69636;52.372;13.610;2023-10-13T12:12:51;10.85;;;5.75;;
80322;SDS011;69636;52.372;13.610;2023-10-13T12:15:18;11.35;;;5.05;;
80322;SDS011;69636;52.372;13.610;2023-10-13T12:17:46;9.23;;;4.38;;
80322;SDS011;69636;52.372;13.610;2023-10-13T12:20:13;7.43;;;4.32;;
80322;SDS011;69636;52.372;13.610;2023-10-13T12:22:41;7.25;;;5.05;;
80322;SDS011;69636;52.372;13.610;2023-10-13T12:25:08;6.03;;;4.30;;
80322;SDS011;69636;52.372;13.610;2023-10-13T12:27:37;7.30;;;4.50;;
80322;SDS011;69636;52.372;13.610;2023-10-13T12:30:05;7.85;;;5.15;;
80322;SDS011;69636;52.372;13.610;2023-10-13T12:32:33;6.55;;;4.53;;
80322;SDS011;69636;52.372;13.610;2023-10-13T12:35:01;6.95;;;4.25;;
80322;SDS011;69636;52.372;13.610;2023-10-13T12:37:29;8.75;;;4.72;;
80322;SDS011;69636;52.372;13.610;2023-10-13T12:39:57;7.07;;;4.40;;
80322;SDS011;69636;52.372;13.610;2023-10-13T12:42:25;9.38;;;5.18;;
80322;SDS011;69636;52.372;13.610;2023-10-13T12:44:54;6.97;;;4.65;;
80322;SDS011;69636;52.372;13.610;2023-10-13T12:47:21;7.78;;;6.22;;
80322;SDS011;69636;52.372;13.610;2023-10-13T12:49:48;12.05;;;4.93;;
80322;SDS011;69636;52.372;13.610;2023-10-13T12:52:18;9.25;;;4.47;;
80322;SDS011;69636;52.372;13.610;2023-10-13T12:54:46;8.13;;;4.45;;
80322;SDS011;69636;52.372;13.610;2023-10-13T12:57:14;6.22;;;4.07;;
80322;SDS011;69636;52.372;13.610;2023-10-13T12:59:41;7.80;;;4.93;;
80322;SDS011;69636;52.372;13.610;2023-10-13T13:02:10;9.55;;;6.30;;
80322;SDS011;69636;52.372;13.610;2023-10-13T13:04:38;10.80;;;5.28;;
80322;SDS011;69636;52.372;13.610;2023-10-13T13:07:05;7.10;;;4.35;;
80322;SDS011;69636;52.372;13.610;2023-10-13T13:09:32;8.50;;;3.83;;
80322;SDS011;69636;52.372;13.610;2023-10-13T13:12:00;8.85;;;5.30;;
80322;SDS011;69636;52.372;13.610;2023-10-13T13:14:27;7.15;;;4.13;;
80322;SDS011;69636;52.372;13.610;2023-10-13T13:16:55;7.68;;;4.78;;
80322;SDS011;69636;52.372;13.610;2023-10-13T13:19:24;7.18;;;3.50;;
80322;SDS011;69636;52.372;13.610;2023-10-13T13:21:51;7.70;;;4.63;;
80322;SDS011;69636;52.372;13.610;2023-10-13T13:24:18;10.20;;;4.00;;
80322;SDS011;69636;52.372;13.610;2023-10-13T13:26:46;6.45;;;4.28;;
80322;SDS011;69636;52.372;13.610;2023-10-13T13:29:13;7.70;;;5.03;;
80322;SDS011;69636;52.372;13.610;2023-10-13T13:31:40;6.82;;;3.75;;
80322;SDS011;69636;52.372;13.610;2023-10-13T13:34:08;10.63;;;5.03;;
80322;SDS011;69636;52.372;13.610;2023-10-13T13:36:36;9.68;;;4.18;;
80322;SDS011;69636;52.372;13.610;2023-10-13T13:39:04;9.15;;;4.72;;
80322;SDS011;69636;52.372;13.610;2023-10-13T13:41:31;9.68;;;4.88;;
80322;SDS011;69636;52.372;13.610;2023-10-13T13:43:58;8.63;;;4.43;;
80322;SDS011;69636;52.372;13.610;2023-10-13T13:46:26;9.52;;;4.70;;
80322;SDS011;69636;52.372;13.610;2023-10-13T13:48:53;8.80;;;5.72;;
80322;SDS011;69636;52.372;13.610;2023-10-13T13:51:21;9.18;;;4.75;;
80322;SDS011;69636;52.372;13.610;2023-10-13T13:53:49;8.85;;;4.35;;
80322;SDS011;69636;52.372;13.610;2023-10-13T13:56:17;9.00;;;5.28;;
80322;SDS011;69636;52.372;13.610;2023-10-13T13:58:44;7.50;;;4.00;;
80322;SDS011;69636;52.372;13.610;2023-10-13T14:01:12;8.40;;;4.20;;
80322;SDS011;69636;52.372;13.610;2023-10-13T14:03:40;8.57;;;4.95;;
80322;SDS011;69636;52.372;13.610;2023-10-13T14:06:09;10.95;;;5.47;;
80322;SDS011;69636;52.372;13.610;2023-10-13T14:08:36;9.23;;;4.32;;
80322;SDS011;69636;52.372;13.610;2023-10-13T14:11:05;8.80;;;4.20;;
80322;SDS011;69636;52.372;13.610;2023-10-13T14:13:32;12.25;;;4.05;;
80322;SDS011;69636;52.372;13.610;2023-10-13T14:16:00;9.55;;;4.47;;
80322;SDS011;69636;52.372;13.610;2023-10-13T14:18:27;8.23;;;5.10;;
80322;SDS011;69636;52.372;13.610;2023-10-13T14:20:54;8.15;;;4.65;;
80322;SDS011;69636;52.372;13.610;2023-10-13T14:23:22;9.60;;;4.18;;
80322;SDS011;69636;52.372;13.610;2023-10-13T14:25:49;8.00;;;3.92;;
80322;SDS011;69636;52.372;13.610;2023-10-13T14:28:18;8.35;;;4.30;;
80322;SDS011;69636;52.372;13.610;2023-10-13T14:30:45;9.25;;;4.00;;
80322;SDS011;69636;52.372;13.610;2023-10-13T14:33:12;8.15;;;4.00;;
80322;SDS011;69636;52.372;13.610;2023-10-13T14:35:40;18.83;;;13.68;;
80322;SDS011;69636;52.372;13.610;2023-10-13T14:38:07;8.13;;;4.60;;
80322;SDS011;69636;52.372;13.610;2023-10-13T14:40:35;8.25;;;4.72;;
80322;SDS011;69636;52.372;13.610;2023-10-13T14:43:02;8.75;;;4.18;;
80322;SDS011;69636;52.372;13.610;2023-10-13T14:47:58;6.78;;;4.00;;
80322;SDS011;69636;52.372;13.610;2023-10-13T14:50:26;9.98;;;4.72;;
80322;SDS011;69636;52.372;13.610;2023-10-13T14:52:53;8.07;;;4.35;;